Time;durP1;ratioP1;P1;durP2;ratioP2;P2;SDS_P1;SDS_P2;PMS_P1;PMS_P2;Temp;Humidity;BMP_temperature;BMP_pressure;BME280_temperature;BME280_humidity;BME280_pressure;Samples;Min_cycle;Max_cycle;Signal;HPM_P1;HPM_P2
2022/01/07 00:02:02;;;;;;;18.17;8.90;;;;;;;9.96;76.25;98925.94;5034926;28;20231;-93
2022/01/07 00:04:28;;;;;;;18.07;9.30;;;;;;;10.14;75.47;98929.38;5034937;28;20370;-92
2022/01/07 00:06:54;;;;;;;20.10;8.97;;;;;;;10.34;74.49;98937.84;5035255;28;20237;-92
2022/01/07 00:09:22;;;;;;;27.43;10.83;;;;;;;10.44;73.68;98932.94;5034637;28;20171;-93
2022/01/07 00:11:47;;;;;;;19.30;10.23;;;;;;;10.52;73.48;98941.22;5034784;28;20288;-93
2022/01/07 00:14:13;;;;;;;20.40;10.60;;;;;;;10.61;72.78;98925.00;5034894;28;20203;-94
2022/01/07 00:16:38;;;;;;;23.70;9.53;;;;;;;10.65;72.19;98937.00;5034727;28;20190;-91
2022/01/07 00:19:06;;;;;;;19.30;9.37;;;;;;;10.70;72.06;98939.34;5034546;28;20189;-92
2022/01/07 00:21:32;;;;;;;24.83;10.57;;;;;;;10.71;72.05;98935.81;5034526;28;20214;-94
2022/01/07 00:23:57;;;;;;;15.97;8.23;;;;;;;10.79;71.46;98946.72;5034529;28;20271;-92
2022/01/07 00:26:25;;;;;;;23.17;8.73;;;;;;;10.73;71.21;98947.03;5034511;28;20269;-92
2022/01/07 00:28:58;;;;;;;22.20;9.50;;;;;;;10.81;70.91;98953.56;5034465;28;20186;-93
2022/01/07 00:31:24;;;;;;;22.87;9.57;;;;;;;10.78;71.05;98958.13;5034764;28;20236;-93
2022/01/07 00:33:49;;;;;;;21.07;8.30;;;;;;;10.76;70.89;98959.97;5034379;28;20206;-93
2022/01/07 00:36:26;;;;;;;20.37;9.67;;;;;;;10.78;70.65;98973.84;5035491;28;20190;-93
2022/01/07 00:38:52;;;;;;;29.53;10.07;;;;;;;10.81;70.31;98968.44;5034308;28;20170;-92
2022/01/07 00:41:17;;;;;;;26.50;10.70;;;;;;;10.86;70.00;98976.88;5034078;28;20199;-94
2022/01/07 00:43:45;;;;;;;18.10;9.07;;;;;;;10.90;69.68;98973.19;5034251;28;20551;-93
2022/01/07 00:46:13;;;;;;;26.90;11.07;;;;;;;10.90;68.89;98967.94;5034089;28;20197;-92
2022/01/07 00:48:41;;;;;;;19.37;8.57;;;;;;;10.86;68.79;98971.63;5034099;28;20174;-93
2022/01/07 00:51:06;;;;;;;19.07;9.37;;;;;;;10.72;69.58;98961.06;5034039;28;20265;-93
2022/01/07 00:53:34;;;;;;;17.50;8.43;;;;;;;10.48;70.92;98971.97;5033973;28;20174;-93
2022/01/07 00:55:59;;;;;;;18.07;8.17;;;;;;;10.38;72.27;98965.56;5034339;28;20171;-93
2022/01/07 00:58:25;;;;;;;16.57;8.40;;;;;;;10.45;72.90;98973.94;5034113;28;20179;-92
2022/01/07 01:00:50;;;;;;;17.67;8.60;;;;;;;10.47;71.94;98982.56;5033814;28;20204;-93
2022/01/07 01:03:16;;;;;;;15.27;8.13;;;;;;;10.55;71.29;98982.13;5033811;28;20251;-92
2022/01/07 01:05:44;;;;;;;15.57;6.97;;;;;;;10.61;70.97;98987.91;5033756;28;20181;-93
2022/01/07 01:08:10;;;;;;;13.97;8.17;;;;;;;10.64;70.37;98986.88;5034076;28;20178;-94
2022/01/07 01:10:45;;;;;;;12.27;7.00;;;;;;;10.54;70.22;98990.91;5033902;28;20204;-93
2022/01/07 01:13:13;;;;;;;16.27;7.17;;;;;;;10.46;69.63;98986.09;5034247;28;20626;-94
2022/01/07 01:15:48;;;;;;;;;;;;;;;;;;;;;
2022/01/07 01:18:26;;;;;;;14.23;6.80;;;;;;;10.50;69.85;98985.03;5035245;28;20150;-93
2022/01/07 01:20:57;;;;;;;17.87;7.30;;;;;;;10.46;69.58;98979.09;5033736;28;20185;-93
2022/01/07 01:23:27;;;;;;;17.77;7.10;;;;;;;10.41;69.33;98981.13;5033656;28;20558;-94
2022/01/07 01:26:00;;;;;;;22.90;10.23;;;;;;;10.27;69.50;98988.03;5034233;28;20265;-93
2022/01/07 01:28:46;;;;;;;15.07;8.60;;;;;;;10.30;70.02;98988.69;5033883;28;20627;-94
2022/01/07 01:31:16;;;;;;;17.77;7.27;;;;;;;10.33;69.91;98988.53;5033769;28;20557;-93
2022/01/07 01:33:48;;;;;;;16.07;7.77;;;;;;;10.25;69.84;98980.25;5032770;28;20201;-93
2022/01/07 01:36:15;;;;;;;14.20;7.67;;;;;;;10.09;71.63;99000.28;5033987;28;20179;-92
2022/01/07 01:38:41;;;;;;;17.87;7.97;;;;;;;10.00;72.63;98995.53;5033559;28;20178;-93
2022/01/07 01:41:12;;;;;;;17.97;8.80;;;;;;;10.00;73.03;99000.78;5033027;28;20263;-93
2022/01/07 01:43:40;;;;;;;16.83;8.43;;;;;;;9.92;73.11;99002.94;5033173;28;20174;-93
2022/01/07 01:46:08;;;;;;;16.83;9.07;;;;;;;9.83;73.22;99001.66;5033115;28;20638;-92
2022/01/07 01:48:34;;;;;;;35.87;9.80;;;;;;;9.70;74.19;99007.59;5033908;28;20203;-93
2022/01/07 01:50:59;;;;;;;17.97;8.17;;;;;;;9.76;73.65;99012.50;5033029;28;20174;-92
2022/01/07 01:53:28;;;;;;;21.93;9.90;;;;;;;9.83;73.02;99019.97;5034029;28;20178;-94
2022/01/07 01:55:54;;;;;;;16.73;8.93;;;;;;;9.65;73.22;99017.44;5032846;28;20213;-92
2022/01/07 01:58:19;;;;;;;22.00;9.77;;;;;;;9.41;74.63;99016.09;5032840;28;20170;-92
2022/01/07 02:00:45;;;;;;;16.33;9.27;;;;;;;9.40;74.64;99009.16;5033527;28;20178;-93
2022/01/07 02:03:10;;;;;;;24.30;10.97;;;;;;;9.48;73.62;99012.22;5033116;28;20627;-93
2022/01/07 02:05:36;;;;;;;25.30;10.23;;;;;;;9.36;73.65;99020.66;5033278;28;20179;-91
2022/01/07 02:08:02;;;;;;;17.17;9.00;;;;;;;9.21;74.66;99015.28;5032947;28;20266;-92
2022/01/07 02:10:31;;;;;;;20.67;10.43;;;;;;;8.98;75.87;99012.94;5032610;28;20279;-93
2022/01/07 02:12:58;;;;;;;20.70;9.97;;;;;;;9.08;74.93;99014.19;5033366;28;20180;-94
2022/01/07 02:15:24;;;;;;;19.30;10.57;;;;;;;9.21;74.42;99024.91;5033667;28;20179;-93
2022/01/07 02:17:50;;;;;;;29.77;10.97;;;;;;;9.18;74.46;99022.41;5032934;28;20173;-93
2022/01/07 02:20:20;;;;;;;22.50;11.13;;;;;;;9.17;74.18;99018.97;5032994;28;20187;-92
2022/01/07 02:22:46;;;;;;;21.90;9.37;;;;;;;9.05;73.98;99019.56;5032645;28;20263;-92
2022/01/07 02:25:12;;;;;;;27.13;8.37;;;;;;;8.92;74.89;99018.47;5033243;28;20462;-91
2022/01/07 02:27:42;;;;;;;22.87;10.73;;;;;;;9.02;74.28;99017.09;5032713;28;20175;-93
2022/01/07 02:30:13;;;;;;;21.70;10.00;;;;;;;9.07;74.06;99025.56;5032880;28;20170;-93
2022/01/07 02:32:42;;;;;;;20.60;9.90;;;;;;;9.08;73.60;99024.66;5033442;28;20166;-92
2022/01/07 02:35:08;;;;;;;20.27;9.27;;;;;;;8.90;74.11;99032.53;5036885;28;20585;-92
2022/01/07 02:37:35;;;;;;;18.47;9.27;;;;;;;8.88;74.82;99037.84;5036652;28;20175;-92
2022/01/07 02:40:02;;;;;;;21.30;9.97;;;;;;;8.85;75.05;99037.97;5036486;28;20602;-94
2022/01/07 02:42:28;;;;;;;26.30;11.73;;;;;;;8.89;74.99;99041.25;5036605;28;20205;-93
2022/01/07 02:44:53;;;;;;;31.60;9.40;;;;;;;8.92;74.54;99043.75;5036391;28;20182;-94
2022/01/07 02:47:20;;;;;;;21.80;10.57;;;;;;;8.99;74.75;99048.59;5036778;28;20170;-91
2022/01/07 02:49:48;;;;;;;24.43;11.53;;;;;;;8.95;74.36;99052.28;5036346;28;20178;-94
2022/01/07 02:52:16;;;;;;;23.10;9.77;;;;;;;9.08;74.17;99056.03;5036523;28;20166;-94
2022/01/07 02:54:42;;;;;;;21.70;10.63;;;;;;;9.07;73.97;99064.78;5036294;28;20201;-93
2022/01/07 02:57:07;;;;;;;25.17;10.83;;;;;;;9.16;73.74;99066.97;5036269;28;20617;-92
2022/01/07 02:59:33;;;;;;;20.33;8.57;;;;;;;9.20;73.51;99070.25;5036487;28;20628;-92
2022/01/07 03:01:58;;;;;;;17.13;10.07;;;;;;;9.09;72.70;99070.78;5035995;28;20195;-92
2022/01/07 03:04:26;;;;;;;18.30;8.10;;;;;;;9.15;73.22;99072.25;5035973;28;20211;-93
2022/01/07 03:06:52;;;;;;;25.07;10.23;;;;;;;9.26;72.69;99070.81;5036053;28;20186;-92
2022/01/07 03:09:25;;;;;;;17.97;7.93;;;;;;;9.36;71.82;99072.97;5036812;28;20185;-93
2022/01/07 03:11:50;;;;;;;18.80;9.00;;;;;;;9.15;72.11;99078.34;5035903;28;20190;-92
2022/01/07 03:14:16;;;;;;;15.07;8.30;;;;;;;9.03;72.74;99085.91;5035896;28;20181;-92
2022/01/07 03:16:41;;;;;;;15.00;8.17;;;;;;;9.09;72.78;99086.47;5035790;28;20273;-93
2022/01/07 03:19:07;;;;;;;24.13;9.57;;;;;;;9.18;72.49;99091.25;5036348;28;20528;-93
2022/01/07 03:21:32;;;;;;;17.47;8.63;;;;;;;8.91;72.67;99095.16;5035589;28;20518;-92
2022/01/07 03:23:58;;;;;;;20.83;9.57;;;;;;;8.98;72.10;99099.22;5035943;28;20182;-92
2022/01/07 03:26:24;;;;;;;18.63;7.50;;;;;;;8.92;72.65;99082.94;5035632;28;20175;-94
2022/01/07 03:28:49;;;;;;;15.07;6.90;;;;;;;8.71;73.22;99097.84;5035637;28;20624;-92
2022/01/07 03:31:15;;;;;;;14.03;6.03;;;;;;;8.87;72.69;99087.53;5035613;28;20177;-92
2022/01/07 03:33:41;;;;;;;15.10;8.47;;;;;;;8.78;72.57;99094.03;5035531;28;20183;-95
2022/01/07 03:36:06;;;;;;;11.93;6.23;;;;;;;8.89;71.96;99094.41;5036267;28;20171;-94
2022/01/07 03:38:32;;;;;;;16.10;7.23;;;;;;;8.72;71.38;99102.19;5035730;28;20178;-92
2022/01/07 03:41:17;;;;;;;;;;;;;;;;;;;;;
2022/01/07 03:43:46;;;;;;;13.70;6.63;;;;;;;8.75;71.59;99109.88;5036771;28;20171;-94
2022/01/07 03:46:18;;;;;;;14.43;5.93;;;;;;;8.99;71.12;99105.25;5035738;28;20179;-95
2022/01/07 03:49:15;;;;;;;15.00;6.00;;;;;;;8.67;71.61;99101.53;5035672;28;20257;-95
2022/01/07 03:52:14;;;;;;;11.30;5.77;;;;;;;8.73;71.79;99116.06;5037325;28;20171;-94
2022/01/07 03:54:56;;;;;;;;;;;;;;;;;;;;;
2022/01/07 03:57:24;;;;;;;13.53;7.63;;;;;;;8.29;73.67;99116.28;5039735;28;20675;-94
2022/01/07 03:59:50;;;;;;;15.93;5.63;;;;;;;8.44;72.83;99125.22;5041227;28;20269;-93
2022/01/07 04:02:25;;;;;;;12.83;7.20;;;;;;;8.27;73.09;99128.56;5039889;28;20258;-94
2022/01/07 04:05:21;;;;;;;;;;;;;;;;;;;;;
2022/01/07 04:08:24;;;;;;;8.80;4.83;;;;;;;8.18;72.78;99131.53;5035648;28;20183;-95
2022/01/07 04:11:59;;;;;;;;;;;;;;;;;;;;;
2022/01/07 04:15:26;;;;;;;;;;;;;;;;;;;;;
2022/01/07 04:18:24;;;;;;;10.70;5.20;;;;;;;8.24;72.00;99146.09;4937891;28;20241;-95
2022/01/07 04:23:41;;;;;;;7.90;3.60;;;;;;;8.28;71.29;99155.53;4978932;28;20201;-93
2022/01/07 04:26:06;;;;;;;6.10;3.17;;;;;;;8.19;70.61;99158.50;4961569;28;20608;-94
2022/01/07 04:32:19;;;;;;;10.57;4.23;;;;;;;8.31;70.59;99171.06;4918393;29;20194;-95
2022/01/07 04:38:14;;;;;;;6.90;3.70;;;;;;;8.38;70.07;99173.38;4863119;29;20715;-94
2022/01/07 04:41:34;;;;;;;10.10;4.17;;;;;;;8.37;69.99;99176.03;4920700;29;20265;-94
2022/01/07 04:47:23;;;;;;;8.63;4.13;;;;;;;8.41;68.92;99175.81;4847665;29;20196;-93
2022/01/07 04:53:16;;;;;;;7.23;2.73;;;;;;;8.26;70.17;99186.03;4904638;29;20193;-95
2022/01/07 04:59:16;;;;;;;10.30;2.73;;;;;;;8.20;70.36;99186.31;4903000;29;20217;-95
2022/01/07 05:01:51;;;;;;;3.90;2.40;;;;;;;8.24;70.04;99195.69;4992479;28;20206;-93
2022/01/07 05:04:26;;;;;;;;;;;;;;;;;;;;;
2022/01/07 05:07:27;;;;;;;5.93;3.43;;;;;;;8.42;69.45;99195.81;5044187;28;20253;-95
2022/01/07 05:10:28;;;;;;;;;;;;;;;;;;;;;
2022/01/07 05:13:30;;;;;;;5.97;2.87;;;;;;;8.31;70.08;99202.38;5024869;28;20286;-94
2022/01/07 05:16:14;;;;;;;7.90;3.80;;;;;;;8.24;70.41;99201.78;4993986;28;20196;-94
2022/01/07 05:18:42;;;;;;;7.17;2.43;;;;;;;8.28;70.01;99208.59;5022768;28;20182;-95
2022/01/07 05:21:12;;;;;;;3.27;2.00;;;;;;;8.31;69.15;99218.06;5006154;28;20298;-95
2022/01/07 05:23:37;;;;;;;10.77;4.23;;;;;;;8.42;69.18;99221.94;5003674;28;20274;-92
2022/01/07 05:26:46;;;;;;;7.13;3.03;;;;;;;8.55;69.19;99222.25;5023158;28;20198;-96
2022/01/07 05:29:35;;;;;;;8.33;3.63;;;;;;;8.47;68.70;99221.72;5043760;28;20259;-94
2022/01/07 05:32:06;;;;;;;5.40;2.43;;;;;;;8.44;68.55;99232.28;5039244;28;20185;-94
2022/01/07 05:34:44;;;;;;;7.57;3.33;;;;;;;8.34;69.55;99224.00;5039689;28;20182;-95
2022/01/07 05:37:39;;;;;;;4.43;2.47;;;;;;;8.19;69.75;99234.22;5036089;28;20187;-91
2022/01/07 05:40:08;;;;;;;11.33;3.77;;;;;;;8.30;69.33;99232.03;5040031;28;20210;-92
2022/01/07 05:43:28;;;;;;;11.87;3.30;;;;;;;8.41;69.25;99235.06;5044052;28;20210;-96
2022/01/07 05:46:27;;;;;;;4.97;2.90;;;;;;;8.46;68.46;99233.09;5037408;28;20191;-94
2022/01/07 05:49:08;;;;;;;8.33;3.27;;;;;;;8.47;68.24;99235.63;5035714;28;20174;-95
2022/01/07 05:51:48;;;;;;;9.17;3.87;;;;;;;8.46;68.57;99238.31;5037817;28;20185;-94
2022/01/07 05:54:19;;;;;;;4.77;2.03;;;;;;;8.77;67.41;99243.94;5042678;28;20178;-94
2022/01/07 05:57:40;;;;;;;;;;;;;;;;;;;;;
2022/01/07 06:00:42;;;;;;;9.53;4.40;;;;;;;8.59;68.00;99256.00;5014911;28;20286;-91
2022/01/07 06:03:08;;;;;;;5.67;3.27;;;;;;;8.61;67.44;99250.72;5005509;28;20200;-93
2022/01/07 06:05:33;;;;;;;6.77;3.37;;;;;;;8.61;67.78;99245.50;5003202;28;20175;-94
2022/01/07 06:08:12;;;;;;;8.30;3.10;;;;;;;8.67;67.39;99245.25;5009297;28;20257;-93
2022/01/07 06:10:41;;;;;;;4.43;2.50;;;;;;;8.54;67.37;99254.53;5041731;28;20187;-93
2022/01/07 06:14:03;;;;;;;10.50;4.33;;;;;;;8.56;68.19;99261.38;5040778;28;20164;-95
2022/01/07 06:17:38;;;;;;;6.60;2.87;;;;;;;8.68;67.41;99257.38;5023853;28;20195;-95
2022/01/07 06:23:56;;;;;;;9.97;3.93;;;;;;;8.75;66.58;99256.22;5098093;22;20263;-93
2022/01/07 06:26:56;;;;;;;4.20;3.17;;;;;;;8.75;67.38;99264.06;5082748;28;20233;-95
2022/01/07 06:30:04;;;;;;;;;;;;;;;;;;;;;
2022/01/07 06:33:13;;;;;;;8.67;2.93;;;;;;;8.62;67.36;99273.34;5085443;28;20647;-95
2022/01/07 06:35:39;;;;;;;8.10;3.43;;;;;;;8.70;67.01;99276.44;5261996;22;21106;-96
2022/01/07 06:38:30;;;;;;;;;;;;;;;;;;;;;
2022/01/07 06:45:12;;;;;;;;;;;;;;;;;;;;;
2022/01/07 06:48:19;;;;;;;11.30;4.03;;;;;;;8.82;66.45;99285.53;5049735;28;20176;-96
2022/01/07 06:51:33;;;;;;;;;;;;;;;;;;;;;
2022/01/07 06:58:25;;;;;;;;;;;;;;;;;;;;;
2022/01/07 07:01:38;;;;;;;;;;;;;;;;;;;;;
2022/01/07 07:21:42;;;;;;;11.23;5.60;;;;;;;9.20;66.61;99310.84;4846783;29;20200;-95
2022/01/07 07:24:18;;;;;;;14.53;6.70;;;;;;;9.53;65.77;99314.59;4903337;29;20202;-95
2022/01/07 07:27:27;;;;;;;7.23;3.13;;;;;;;9.45;65.51;99310.63;4930312;29;20193;-96
2022/01/07 07:30:58;;;;;;;;;;;;;;;;;;;;;
2022/01/07 07:34:33;;;;;;;8.07;4.23;;;;;;;9.44;64.34;99322.84;5034495;28;20221;-95
2022/01/07 07:37:39;;;;;;;;;;;;;;;;;;;;;
2022/01/07 07:40:46;;;;;;;;;;;;;;;;;;;;;
2022/01/07 07:43:44;;;;;;;8.50;4.37;;;;;;;9.24;65.60;99315.03;5068213;28;20198;-94
2022/01/07 07:46:24;;;;;;;6.70;3.03;;;;;;;9.02;66.53;99322.97;5065943;28;20194;-94
2022/01/07 07:49:01;;;;;;;8.47;2.50;;;;;;;8.89;66.91;99321.81;5062282;28;20555;-94
2022/01/07 07:51:29;;;;;;;7.90;3.70;;;;;;;8.83;66.77;99316.81;5063855;28;20178;-94
2022/01/07 07:54:01;;;;;;;6.27;3.33;;;;;;;8.87;66.40;99307.97;5066338;28;20182;-95
2022/01/07 07:56:40;;;;;;;;;;;;;;;;;;;;;
2022/01/07 08:02:49;;;;;;;9.40;3.37;;;;;;;9.35;64.18;99332.88;5053295;28;20202;-95
2022/01/07 08:19:41;;;;;;;8.80;3.13;;;;;;;9.99;61.47;99357.81;5065038;28;20189;-95
2022/01/07 08:22:50;;;;;;;4.03;2.63;;;;;;;9.85;61.47;99358.44;5067929;28;20212;-94
2022/01/07 08:25:30;;;;;;;;;;;;;;;;;;;;;
2022/01/07 08:28:18;;;;;;;6.17;2.90;;;;;;;9.89;62.14;99370.50;5087530;28;20184;-94
2022/01/07 08:38:23;;;;;;;;;;;;;;;;;;;;;
2022/01/07 08:41:24;;;;;;;8.03;3.33;;;;;;;9.96;61.51;99363.19;4990868;28;20223;-96
2022/01/07 08:44:47;;;;;;;;;;;;;;;;;;;;;
2022/01/07 08:56:53;;;;;;;7.07;4.00;;;;;;;9.98;62.37;99356.13;5001786;28;20241;-95
2022/01/07 09:00:06;;;;;;;7.00;2.70;;;;;;;9.98;62.26;99352.66;5021218;28;20182;-95
2022/01/07 09:02:18;;;;;;;6.63;2.50;;;;;;;9.73;62.39;99342.47;5032787;28;20282;-95
2022/01/07 09:04:48;;;;;;;7.50;2.50;;;;;;;9.71;63.07;99346.91;5022611;28;20194;-94
2022/01/07 09:07:17;;;;;;;7.20;4.07;;;;;;;9.70;63.12;99342.59;5024156;28;20171;-95
2022/01/07 09:09:56;;;;;;;14.53;3.63;;;;;;;9.66;63.41;99335.81;5027221;28;20185;-95
2022/01/07 09:21:21;;;;;;;4.40;2.33;;;;;;;9.57;63.18;99336.22;5077017;28;20228;-96
2022/01/07 09:24:14;;;;;;;7.00;3.40;;;;;;;9.64;63.02;99333.25;5079962;28;20182;-95
2022/01/07 09:26:53;;;;;;;14.20;8.10;;;;;;;9.90;62.41;99332.91;5079859;28;20252;-95
2022/01/07 09:29:51;;;;;;;;;;;;;;;;;;;;;
2022/01/07 09:32:19;;;;;;;9.27;4.33;;;;;;;9.94;61.23;99330.13;5079732;28;20216;-96
2022/01/07 09:35:02;;;;;;;11.27;4.10;;;;;;;10.04;61.60;99337.50;5078961;28;20190;-96
2022/01/07 09:37:28;;;;;;;4.67;2.67;;;;;;;10.01;60.62;99340.25;5079131;28;20164;-95
2022/01/07 09:40:09;;;;;;;10.13;4.17;;;;;;;10.16;60.64;99336.97;5077204;28;20224;-94
2022/01/07 09:42:56;;;;;;;3.90;2.10;;;;;;;10.07;60.02;99337.34;5080708;28;20238;-95
2022/01/07 09:48:55;;;;;;;8.70;3.33;;;;;;;10.18;59.78;99324.63;5072905;28;20223;-95
2022/01/07 09:51:58;;;;;;;7.17;3.07;;;;;;;10.25;60.04;99320.78;5079784;28;20176;-96
2022/01/07 09:54:43;;;;;;;7.27;4.10;;;;;;;10.22;60.26;99314.88;5070601;28;20628;-94
2022/01/07 09:58:03;;;;;;;7.27;3.57;;;;;;;10.41;59.61;99308.66;5081058;28;20203;-95
2022/01/07 10:01:02;;;;;;;11.73;3.83;;;;;;;10.63;59.15;99312.81;5079985;28;20203;-96
2022/01/07 10:04:00;;;;;;;8.53;5.33;;;;;;;10.59;57.93;99298.16;5068097;28;20615;-95
2022/01/07 10:13:25;;;;;;;8.43;4.30;;;;;;;10.90;57.39;99314.06;5072152;28;20192;-95
2022/01/07 10:16:51;;;;;;;10.20;3.93;;;;;;;10.91;57.82;99315.75;5083442;28;20180;-96
2022/01/07 10:19:46;;;;;;;9.53;3.77;;;;;;;11.09;56.67;99310.41;5057308;28;20188;-96
2022/01/07 10:23:40;;;;;;;8.13;3.27;;;;;;;11.13;57.18;99313.72;5079836;28;20220;-96
2022/01/07 10:26:37;;;;;;;6.47;3.47;;;;;;;11.30;56.41;99315.44;5077248;28;20191;-95
2022/01/07 10:29:38;;;;;;;;;;;;;;;;;;;;;
2022/01/07 10:32:59;;;;;;;;;;;;;;;;;;;;;
2022/01/07 10:35:46;;;;;;;12.27;5.17;;;;;;;10.87;57.55;99308.97;5037423;28;20605;-96
2022/01/07 10:39:01;;;;;;;8.37;3.73;;;;;;;11.05;57.92;99310.66;5058156;28;20248;-96
2022/01/07 10:41:27;;;;;;;5.67;2.23;;;;;;;10.86;57.86;99299.41;5028103;28;20214;-95
2022/01/07 10:44:11;;;;;;;5.83;2.97;;;;;;;10.66;58.74;99297.81;5057063;28;20170;-96
2022/01/07 10:46:52;;;;;;;7.00;2.80;;;;;;;10.25;59.74;99302.44;5060410;28;20181;-96
2022/01/07 10:52:23;;;;;;;12.73;5.43;;;;;;;10.53;58.82;99293.25;5055140;28;20165;-94
2022/01/07 10:55:27;;;;;;;9.63;3.97;;;;;;;10.49;59.56;99298.63;5056555;28;20200;-94
2022/01/07 10:57:53;;;;;;;9.63;3.37;;;;;;;10.35;59.64;99301.06;5021432;28;20334;-96
2022/01/07 11:00:27;;;;;;;8.47;4.37;;;;;;;10.21;60.37;99287.81;5025014;28;20197;-95
2022/01/07 11:02:53;;;;;;;11.80;5.03;;;;;;;10.19;61.33;99301.91;5059783;28;20205;-96
2022/01/07 11:05:28;;;;;;;12.50;4.77;;;;;;;10.45;60.91;99291.00;5059200;28;20174;-95
2022/01/07 11:08:03;;;;;;;9.37;4.83;;;;;;;10.47;60.20;99284.75;5059477;28;20173;-95
2022/01/07 11:10:49;;;;;;;10.07;4.27;;;;;;;10.62;59.96;99298.88;5059966;28;20198;-96
2022/01/07 11:13:23;;;;;;;6.10;2.63;;;;;;;10.77;59.35;99297.25;5058728;28;20163;-95
2022/01/07 11:15:51;;;;;;;18.27;9.90;;;;;;;10.77;59.21;99300.72;5058022;28;20251;-95
2022/01/07 11:18:19;;;;;;;10.57;6.27;;;;;;;10.85;59.25;99300.31;5058415;28;20189;-95
2022/01/07 11:20:58;;;;;;;15.70;8.47;;;;;;;10.79;59.43;99298.88;5058685;28;20279;-95
2022/01/07 11:23:38;;;;;;;6.80;4.00;;;;;;;10.93;59.30;99306.00;5058709;28;20235;-95
2022/01/07 11:26:16;;;;;;;11.37;6.00;;;;;;;10.95;59.55;99312.06;5058883;28;20227;-95
2022/01/07 11:29:17;;;;;;;8.30;4.87;;;;;;;11.05;59.27;99297.53;5058818;28;20186;-96
2022/01/07 11:32:18;;;;;;;9.27;5.93;;;;;;;10.94;59.79;99297.25;5022113;28;20266;-95
2022/01/07 11:34:56;;;;;;;12.40;5.10;;;;;;;10.85;59.96;99301.16;5051739;28;20205;-96
2022/01/07 11:38:00;;;;;;;12.77;5.60;;;;;;;10.77;60.13;99297.25;5058547;28;20165;-95
2022/01/07 11:40:31;;;;;;;11.13;5.17;;;;;;;10.74;60.18;99297.41;5059135;28;20339;-95
2022/01/07 11:43:04;;;;;;;8.70;3.40;;;;;;;10.71;59.91;99302.81;5061063;28;20201;-96
2022/01/07 11:45:31;;;;;;;6.30;3.60;;;;;;;10.74;60.29;99305.28;5060178;28;20265;-96
2022/01/07 11:48:32;;;;;;;;;;;;;;;;;;;;;
2022/01/07 11:51:13;;;;;;;9.77;3.80;;;;;;;11.17;59.29;99309.16;5065889;28;20186;-95
2022/01/07 11:54:04;;;;;;;10.00;4.87;;;;;;;11.24;59.42;99300.06;5066164;28;20181;-96
2022/01/07 11:56:55;;;;;;;11.20;4.67;;;;;;;10.88;59.80;99300.16;5065478;28;20184;-96
2022/01/07 11:59:25;;;;;;;17.27;7.00;;;;;;;10.89;60.02;99307.13;5065385;28;20182;-96
2022/01/07 12:04:56;;;;;;;15.03;6.83;;;;;;;11.01;59.33;99309.09;5063339;28;20192;-95
2022/01/07 12:10:42;;;;;;;8.83;4.17;;;;;;;10.83;59.75;99303.03;5061082;28;20189;-95
2022/01/07 12:17:19;;;;;;;;;;;;;;;;;;;;;
2022/01/07 12:20:32;;;;;;;13.80;2.33;;;;;;;10.93;59.76;99299.00;5060831;28;20237;-95
2022/01/07 12:23:06;;;;;;;5.73;1.83;;;;;;;10.80;60.18;99299.69;5058597;28;20197;-95
2022/01/07 12:26:02;;;;;;;4.77;1.70;;;;;;;10.91;59.83;99305.25;5059340;28;20267;-96
2022/01/07 12:49:56;;;;;;;2.50;1.10;;;;;;;11.15;58.99;99304.00;4968208;28;20196;-95
2022/01/07 12:52:38;;;;;;;1.50;0.90;;;;;;;10.84;60.13;99315.22;4976786;28;20625;-95
2022/01/07 12:55:25;;;;;;;;;;;;;;;;;;;;;
2022/01/07 12:58:11;;;;;;;1.87;0.90;;;;;;;10.44;61.55;99326.84;5007072;28;20178;-94
2022/01/07 13:01:36;;;;;;;;;;;;;;;;;;;;;
2022/01/07 13:04:19;;;;;;;3.43;1.43;;;;;;;10.59;61.03;99319.13;4992402;28;20199;-93
2022/01/07 13:07:42;;;;;;;1.67;0.93;;;;;;;10.42;60.93;99331.31;4974742;28;20188;-95
2022/01/07 13:14:19;;;;;;;;;;;;;;;;;;;;;
2022/01/07 16:03:43;;;;;;;9.27;2.50;;;;;;;9.31;69.00;99446.41;4806673;29;20245;-94
2022/01/07 16:06:11;;;;;;;8.67;3.33;;;;;;;9.34;69.69;99443.66;4827003;29;20208;-91
2022/01/07 16:08:37;;;;;;;3.90;2.47;;;;;;;9.34;70.00;99438.41;4902149;29;20290;-91
2022/01/07 16:11:06;;;;;;;4.03;2.47;;;;;;;9.32;70.38;99437.66;4917771;29;20194;-90
2022/01/07 16:13:41;;;;;;;6.13;2.43;;;;;;;9.09;71.53;99441.25;4902238;29;20211;-91
2022/01/07 16:16:12;;;;;;;5.50;1.93;;;;;;;9.08;72.56;99436.91;4901881;29;20692;-89
2022/01/07 16:18:41;;;;;;;3.47;2.07;;;;;;;9.08;72.57;99445.59;4901759;29;20251;-89
2022/01/07 16:21:10;;;;;;;7.47;3.40;;;;;;;9.09;72.47;99441.25;4943784;28;20286;-91
2022/01/07 16:23:38;;;;;;;5.23;2.10;;;;;;;8.99;73.03;99438.13;4994782;28;20179;-90
2022/01/07 16:26:05;;;;;;;8.17;3.50;;;;;;;9.10;72.97;99445.53;4994704;28;20640;-90
2022/01/07 16:28:33;;;;;;;4.87;2.37;;;;;;;9.20;72.90;99437.25;4995027;28;20185;-91
2022/01/07 16:30:59;;;;;;;8.87;3.60;;;;;;;9.22;72.43;99439.81;4994963;28;20190;-90
2022/01/07 16:33:25;;;;;;;6.33;3.23;;;;;;;8.94;74.24;99442.69;4994725;28;20263;-89
2022/01/07 16:35:54;;;;;;;9.17;3.63;;;;;;;8.93;74.69;99448.88;4994631;28;20709;-89
2022/01/07 16:38:19;;;;;;;6.90;3.30;;;;;;;8.88;75.05;99442.13;4994544;28;20196;-89
2022/01/07 16:40:45;;;;;;;6.77;2.40;;;;;;;8.95;74.95;99438.34;4994463;28;20184;-89
2022/01/07 16:43:11;;;;;;;7.50;2.33;;;;;;;8.89;75.32;99447.28;4995169;28;20270;-89
2022/01/07 16:45:36;;;;;;;7.40;3.50;;;;;;;8.90;75.69;99442.91;4994262;28;20250;-88
2022/01/07 16:48:02;;;;;;;9.57;3.03;;;;;;;8.99;75.32;99453.81;4995128;28;20184;-89
2022/01/07 16:50:28;;;;;;;8.23;2.70;;;;;;;9.00;75.20;99454.69;4995112;28;20263;-89
2022/01/07 16:52:54;;;;;;;7.47;3.07;;;;;;;8.96;75.59;99445.28;4994227;28;20224;-89
2022/01/07 16:55:19;;;;;;;4.97;2.80;;;;;;;8.76;76.27;99451.28;4994006;28;20183;-89
2022/01/07 16:57:49;;;;;;;6.63;3.23;;;;;;;8.87;76.49;99450.88;4994915;28;20211;-88
2022/01/07 17:00:16;;;;;;;5.50;3.10;;;;;;;8.88;76.29;99456.03;4993943;28;20187;-89
2022/01/07 17:02:42;;;;;;;10.03;4.40;;;;;;;8.99;75.28;99453.81;4994797;28;20683;-88
2022/01/07 17:05:07;;;;;;;6.50;3.23;;;;;;;8.84;75.79;99451.84;4995048;28;20176;-88
2022/01/07 17:07:35;;;;;;;6.57;2.77;;;;;;;8.85;76.35;99450.94;4995307;28;20191;-88
2022/01/07 17:10:03;;;;;;;6.03;3.70;;;;;;;8.75;76.58;99444.38;4994749;28;20177;-88
2022/01/07 17:12:28;;;;;;;6.73;2.83;;;;;;;8.87;76.76;99448.25;4994955;28;20606;-88
2022/01/07 17:14:54;;;;;;;8.03;3.27;;;;;;;8.73;76.85;99445.31;4994907;28;20178;-88
2022/01/07 17:17:19;;;;;;;6.37;3.07;;;;;;;8.81;77.05;99444.13;4994637;28;20176;-87
2022/01/07 17:19:45;;;;;;;5.93;2.57;;;;;;;8.69;77.55;99442.00;4994557;28;20186;-87
2022/01/07 17:22:10;;;;;;;9.67;3.30;;;;;;;8.63;78.12;99442.25;4994967;28;20277;-87
2022/01/07 17:24:36;;;;;;;5.97;2.80;;;;;;;8.57;77.82;99442.47;4994756;28;20634;-88
2022/01/07 17:27:01;;;;;;;6.47;2.57;;;;;;;8.43;78.87;99448.28;4994383;28;20184;-88
2022/01/07 17:29:27;;;;;;;5.60;2.93;;;;;;;8.59;78.72;99443.28;4994661;28;20243;-88
2022/01/07 17:31:52;;;;;;;6.93;2.50;;;;;;;8.67;78.02;99442.97;4994315;28;20180;-87
2022/01/07 17:34:18;;;;;;;7.00;3.53;;;;;;;8.65;78.38;99443.03;4994565;28;20653;-88
2022/01/07 17:36:43;;;;;;;6.10;2.80;;;;;;;8.47;78.41;99444.63;4994253;28;20183;-87
2022/01/07 17:39:08;;;;;;;7.70;2.47;;;;;;;8.54;78.73;99438.22;4994212;28;20175;-87
2022/01/07 17:41:35;;;;;;;5.47;2.60;;;;;;;8.36;79.56;99440.72;4994116;28;20282;-86
2022/01/07 17:44:01;;;;;;;15.30;3.63;;;;;;;8.40;79.86;99447.53;4994365;28;20265;-87
2022/01/07 17:46:27;;;;;;;11.73;3.40;;;;;;;8.59;78.95;99448.53;4994366;28;20175;-87
2022/01/07 17:48:53;;;;;;;7.97;3.67;;;;;;;8.59;79.26;99446.72;4994327;28;20183;-86
2022/01/07 17:51:18;;;;;;;7.37;3.00;;;;;;;8.46;79.03;99449.91;4993080;28;20195;-87
2022/01/07 17:53:44;;;;;;;6.13;2.53;;;;;;;8.40;80.04;99447.53;4992968;28;20195;-87
2022/01/07 17:56:09;;;;;;;8.13;3.70;;;;;;;8.48;79.69;99450.69;4994495;28;20260;-87
2022/01/07 17:58:35;;;;;;;10.53;4.37;;;;;;;8.65;79.63;99450.88;4992997;28;20273;-87
2022/01/07 18:01:01;;;;;;;10.43;4.17;;;;;;;8.54;79.78;99445.25;4994134;28;20253;-87
2022/01/07 18:03:26;;;;;;;5.70;2.83;;;;;;;8.54;79.48;99450.47;4992488;28;20215;-87
2022/01/07 18:05:52;;;;;;;5.47;3.20;;;;;;;8.62;79.12;99445.78;4993845;28;20175;-87
2022/01/07 18:08:17;;;;;;;7.57;3.63;;;;;;;8.62;79.33;99445.78;4993780;28;20262;-88
2022/01/07 18:10:44;;;;;;;8.97;3.50;;;;;;;8.65;79.84;99446.50;4994068;28;20266;-87
2022/01/07 18:13:10;;;;;;;5.87;2.27;;;;;;;8.76;79.27;99451.28;4993628;28;20206;-88